sensor_id;sensor_type;location;lat;lon;timestamp;P1;durP1;ratioP1;P2;durP2;ratioP2
803;SDS011;25687;49.976;8.240;2023-05-25T00:00:33;7.53;;;4.50;;
803;SDS011;25687;49.976;8.240;2023-05-25T00:02:58;8.40;;;3.93;;
803;SDS011;25687;49.976;8.240;2023-05-25T00:05:25;8.47;;;3.90;;
803;SDS011;25687;49.976;8.240;2023-05-25T00:07:51;10.17;;;3.90;;
803;SDS011;25687;49.976;8.240;2023-05-25T00:10:18;7.10;;;3.57;;
803;SDS011;25687;49.976;8.240;2023-05-25T00:12:43;9.90;;;4.23;;
803;SDS011;25687;49.976;8.240;2023-05-25T00:15:08;5.43;;;3.90;;
803;SDS011;25687;49.976;8.240;2023-05-25T00:17:34;6.77;;;3.80;;
803;SDS011;25687;49.976;8.240;2023-05-25T00:20:01;8.97;;;3.83;;
803;SDS011;25687;49.976;8.240;2023-05-25T00:22:34;8.23;;;4.00;;
803;SDS011;25687;49.976;8.240;2023-05-25T00:25:03;5.30;;;3.70;;
803;SDS011;25687;49.976;8.240;2023-05-25T00:27:29;10.33;;;3.63;;
803;SDS011;25687;49.976;8.240;2023-05-25T00:29:55;5.97;;;4.10;;
803;SDS011;25687;49.976;8.240;2023-05-25T00:32:20;9.50;;;4.43;;
803;SDS011;25687;49.976;8.240;2023-05-25T00:34:46;8.47;;;4.27;;
803;SDS011;25687;49.976;8.240;2023-05-25T00:37:12;6.07;;;4.23;;
803;SDS011;25687;49.976;8.240;2023-05-25T00:39:37;8.67;;;3.93;;
803;SDS011;25687;49.976;8.240;2023-05-25T00:42:02;6.50;;;4.20;;
803;SDS011;25687;49.976;8.240;2023-05-25T00:44:30;7.47;;;4.20;;
803;SDS011;25687;49.976;8.240;2023-05-25T00:46:56;8.77;;;4.13;;
803;SDS011;25687;49.976;8.240;2023-05-25T00:49:21;6.10;;;4.07;;
803;SDS011;25687;49.976;8.240;2023-05-25T00:51:47;13.03;;;4.87;;
803;SDS011;25687;49.976;8.240;2023-05-25T00:54:13;8.00;;;4.20;;
803;SDS011;25687;49.976;8.240;2023-05-25T00:56:41;6.53;;;4.57;;
803;SDS011;25687;49.976;8.240;2023-05-25T00:59:11;9.30;;;4.93;;
803;SDS011;25687;49.976;8.240;2023-05-25T01:05:03;7.80;;;4.30;;
803;SDS011;25687;49.976;8.240;2023-05-25T01:07:30;7.80;;;4.47;;
803;SDS011;25687;49.976;8.240;2023-05-25T01:09:59;9.00;;;4.90;;
803;SDS011;25687;49.976;8.240;2023-05-25T01:12:26;8.20;;;5.20;;
803;SDS011;25687;49.976;8.240;2023-05-25T01:14:54;11.50;;;4.77;;
803;SDS011;25687;49.976;8.240;2023-05-25T01:17:20;8.70;;;4.57;;
803;SDS011;25687;49.976;8.240;2023-05-25T01:19:46;7.40;;;4.70;;
803;SDS011;25687;49.976;8.240;2023-05-25T01:24:45;7.10;;;5.03;;
803;SDS011;25687;49.976;8.240;2023-05-25T01:29:51;7.23;;;4.50;;
803;SDS011;25687;49.976;8.240;2023-05-25T01:32:18;7.63;;;4.70;;
803;SDS011;25687;49.976;8.240;2023-05-25T01:34:44;10.20;;;5.00;;
803;SDS011;25687;49.976;8.240;2023-05-25T01:37:10;11.27;;;5.00;;
803;SDS011;25687;49.976;8.240;2023-05-25T01:39:41;9.30;;;5.27;;
803;SDS011;25687;49.976;8.240;2023-05-25T01:42:07;11.83;;;4.97;;
803;SDS011;25687;49.976;8.240;2023-05-25T01:44:32;11.60;;;5.07;;
803;SDS011;25687;49.976;8.240;2023-05-25T01:47:00;8.73;;;5.23;;
803;SDS011;25687;49.976;8.240;2023-05-25T01:49:31;8.47;;;5.13;;
803;SDS011;25687;49.976;8.240;2023-05-25T01:57:42;8.57;;;5.33;;
803;SDS011;25687;49.976;8.240;2023-05-25T02:00:13;8.37;;;5.13;;
803;SDS011;25687;49.976;8.240;2023-05-25T02:02:40;10.73;;;5.60;;
803;SDS011;25687;49.976;8.240;2023-05-25T02:05:08;9.70;;;5.67;;
803;SDS011;25687;49.976;8.240;2023-05-25T02:07:34;10.00;;;5.37;;
803;SDS011;25687;49.976;8.240;2023-05-25T02:10:00;8.30;;;4.83;;
803;SDS011;25687;49.976;8.240;2023-05-25T02:12:25;11.63;;;5.70;;
803;SDS011;25687;49.976;8.240;2023-05-25T02:14:50;10.67;;;5.47;;
803;SDS011;25687;49.976;8.240;2023-05-25T02:17:16;12.47;;;6.90;;
803;SDS011;25687;49.976;8.240;2023-05-25T02:19:44;14.87;;;5.97;;
803;SDS011;25687;49.976;8.240;2023-05-25T02:22:12;10.33;;;5.70;;
803;SDS011;25687;49.976;8.240;2023-05-25T02:24:37;12.87;;;5.23;;
803;SDS011;25687;49.976;8.240;2023-05-25T02:27:03;12.13;;;5.70;;
803;SDS011;25687;49.976;8.240;2023-05-25T02:29:30;10.90;;;5.87;;
803;SDS011;25687;49.976;8.240;2023-05-25T02:31:55;7.70;;;5.27;;
803;SDS011;25687;49.976;8.240;2023-05-25T02:34:20;9.77;;;6.17;;
803;SDS011;25687;49.976;8.240;2023-05-25T02:36:45;9.83;;;5.43;;
803;SDS011;25687;49.976;8.240;2023-05-25T02:39:11;12.93;;;6.73;;
803;SDS011;25687;49.976;8.240;2023-05-25T02:41:37;10.37;;;5.37;;
803;SDS011;25687;49.976;8.240;2023-05-25T02:44:02;10.07;;;6.17;;
803;SDS011;25687;49.976;8.240;2023-05-25T02:46:27;9.23;;;5.13;;
803;SDS011;25687;49.976;8.240;2023-05-25T02:48:53;9.53;;;6.17;;
803;SDS011;25687;49.976;8.240;2023-05-25T02:51:18;7.40;;;5.87;;
803;SDS011;25687;49.976;8.240;2023-05-25T02:53:43;8.00;;;5.83;;
803;SDS011;25687;49.976;8.240;2023-05-25T02:56:08;12.70;;;6.50;;
803;SDS011;25687;49.976;8.240;2023-05-25T02:58:36;11.03;;;6.50;;
803;SDS011;25687;49.976;8.240;2023-05-25T03:01:02;14.67;;;5.93;;
803;SDS011;25687;49.976;8.240;2023-05-25T03:03:29;9.57;;;5.70;;
803;SDS011;25687;49.976;8.240;2023-05-25T03:05:54;10.73;;;6.60;;
803;SDS011;25687;49.976;8.240;2023-05-25T03:08:21;13.70;;;6.30;;
803;SDS011;25687;49.976;8.240;2023-05-25T03:10:46;13.73;;;6.33;;
803;SDS011;25687;49.976;8.240;2023-05-25T03:13:12;11.73;;;6.47;;
803;SDS011;25687;49.976;8.240;2023-05-25T03:15:37;9.83;;;6.17;;
803;SDS011;25687;49.976;8.240;2023-05-25T03:18:04;12.37;;;6.90;;
803;SDS011;25687;49.976;8.240;2023-05-25T03:20:29;9.57;;;6.67;;
803;SDS011;25687;49.976;8.240;2023-05-25T03:22:56;8.13;;;5.83;;
803;SDS011;25687;49.976;8.240;2023-05-25T03:25:22;11.23;;;7.03;;
803;SDS011;25687;49.976;8.240;2023-05-25T03:27:50;10.80;;;6.47;;
803;SDS011;25687;49.976;8.240;2023-05-25T03:30:16;13.97;;;6.13;;
803;SDS011;25687;49.976;8.240;2023-05-25T03:32:41;11.33;;;6.57;;
803;SDS011;25687;49.976;8.240;2023-05-25T03:35:06;12.80;;;7.00;;
803;SDS011;25687;49.976;8.240;2023-05-25T03:37:32;9.70;;;6.27;;
803;SDS011;25687;49.976;8.240;2023-05-25T03:39:57;10.97;;;8.00;;
803;SDS011;25687;49.976;8.240;2023-05-25T03:42:22;13.33;;;6.87;;
803;SDS011;25687;49.976;8.240;2023-05-25T03:44:47;15.00;;;7.53;;
803;SDS011;25687;49.976;8.240;2023-05-25T03:47:13;13.93;;;8.30;;
803;SDS011;25687;49.976;8.240;2023-05-25T03:49:38;10.37;;;7.17;;
803;SDS011;25687;49.976;8.240;2023-05-25T03:52:03;13.13;;;7.60;;
803;SDS011;25687;49.976;8.240;2023-05-25T03:54:30;12.27;;;7.87;;
803;SDS011;25687;49.976;8.240;2023-05-25T03:56:55;12.13;;;7.87;;
803;SDS011;25687;49.976;8.240;2023-05-25T03:59:22;11.53;;;7.77;;
803;SDS011;25687;49.976;8.240;2023-05-25T04:01:49;14.07;;;8.00;;
803;SDS011;25687;49.976;8.240;2023-05-25T04:04:14;8.83;;;7.43;;
803;SDS011;25687;49.976;8.240;2023-05-25T04:06:40;11.93;;;7.70;;
803;SDS011;25687;49.976;8.240;2023-05-25T04:09:06;12.10;;;7.83;;
803;SDS011;25687;49.976;8.240;2023-05-25T04:11:31;14.30;;;8.03;;
803;SDS011;25687;49.976;8.240;2023-05-25T04:13:57;12.07;;;7.77;;
803;SDS011;25687;49.976;8.240;2023-05-25T04:16:23;12.07;;;7.70;;
803;SDS011;25687;49.976;8.240;2023-05-25T04:18:50;11.37;;;8.33;;
803;SDS011;25687;49.976;8.240;2023-05-25T04:21:15;13.93;;;8.20;;
803;SDS011;25687;49.976;8.240;2023-05-25T04:23:40;13.73;;;8.00;;
803;SDS011;25687;49.976;8.240;2023-05-25T04:26:07;13.07;;;7.43;;
803;SDS011;25687;49.976;8.240;2023-05-25T04:28:34;12.43;;;6.50;;
803;SDS011;25687;49.976;8.240;2023-05-25T04:31:00;10.10;;;6.67;;
803;SDS011;25687;49.976;8.240;2023-05-25T04:33:27;9.93;;;6.97;;
803;SDS011;25687;49.976;8.240;2023-05-25T04:35:53;8.80;;;7.80;;
803;SDS011;25687;49.976;8.240;2023-05-25T04:38:22;11.97;;;7.03;;
803;SDS011;25687;49.976;8.240;2023-05-25T04:40:48;10.03;;;6.80;;
803;SDS011;25687;49.976;8.240;2023-05-25T04:43:14;11.87;;;7.93;;
803;SDS011;25687;49.976;8.240;2023-05-25T04:45:42;13.63;;;6.93;;
803;SDS011;25687;49.976;8.240;2023-05-25T04:48:09;10.80;;;6.63;;
803;SDS011;25687;49.976;8.240;2023-05-25T04:50:35;10.63;;;5.83;;
803;SDS011;25687;49.976;8.240;2023-05-25T04:53:01;8.33;;;6.07;;
803;SDS011;25687;49.976;8.240;2023-05-25T04:55:26;8.70;;;5.80;;
803;SDS011;25687;49.976;8.240;2023-05-25T04:57:52;9.63;;;5.57;;
803;SDS011;25687;49.976;8.240;2023-05-25T05:00:18;10.47;;;6.50;;
803;SDS011;25687;49.976;8.240;2023-05-25T05:02:44;12.57;;;6.17;;
803;SDS011;25687;49.976;8.240;2023-05-25T05:05:09;8.20;;;5.53;;
803;SDS011;25687;49.976;8.240;2023-05-25T05:07:35;7.60;;;5.43;;
803;SDS011;25687;49.976;8.240;2023-05-25T05:10:01;9.37;;;4.70;;
803;SDS011;25687;49.976;8.240;2023-05-25T05:12:26;9.53;;;4.93;;
803;SDS011;25687;49.976;8.240;2023-05-25T05:14:51;9.33;;;4.80;;
803;SDS011;25687;49.976;8.240;2023-05-25T05:17:17;8.73;;;4.50;;
803;SDS011;25687;49.976;8.240;2023-05-25T05:19:42;10.27;;;4.57;;
803;SDS011;25687;49.976;8.240;2023-05-25T05:22:08;10.23;;;5.03;;
803;SDS011;25687;49.976;8.240;2023-05-25T05:24:33;8.40;;;4.43;;
803;SDS011;25687;49.976;8.240;2023-05-25T05:26:59;13.63;;;4.90;;
803;SDS011;25687;49.976;8.240;2023-05-25T05:29:25;14.43;;;4.77;;
803;SDS011;25687;49.976;8.240;2023-05-25T05:31:53;10.87;;;4.40;;
803;SDS011;25687;49.976;8.240;2023-05-25T05:34:19;12.37;;;5.13;;
803;SDS011;25687;49.976;8.240;2023-05-25T05:36:44;10.47;;;4.27;;
803;SDS011;25687;49.976;8.240;2023-05-25T05:39:09;9.77;;;4.93;;
803;SDS011;25687;49.976;8.240;2023-05-25T05:41:35;6.67;;;4.87;;
803;SDS011;25687;49.976;8.240;2023-05-25T05:44:00;12.83;;;5.30;;
803;SDS011;25687;49.976;8.240;2023-05-25T05:46:25;10.13;;;4.73;;
803;SDS011;25687;49.976;8.240;2023-05-25T05:48:51;13.33;;;5.10;;
803;SDS011;25687;49.976;8.240;2023-05-25T05:51:16;9.47;;;4.47;;
803;SDS011;25687;49.976;8.240;2023-05-25T05:53:42;11.30;;;4.53;;
803;SDS011;25687;49.976;8.240;2023-05-25T05:56:15;7.83;;;4.70;;
803;SDS011;25687;49.976;8.240;2023-05-25T05:58:41;12.77;;;5.23;;
803;SDS011;25687;49.976;8.240;2023-05-25T06:01:06;11.27;;;4.87;;
803;SDS011;25687;49.976;8.240;2023-05-25T06:03:32;5.63;;;3.63;;
803;SDS011;25687;49.976;8.240;2023-05-25T06:05:58;12.00;;;4.53;;
803;SDS011;25687;49.976;8.240;2023-05-25T06:08:23;9.00;;;4.27;;
803;SDS011;25687;49.976;8.240;2023-05-25T06:10:49;6.30;;;3.90;;
803;SDS011;25687;49.976;8.240;2023-05-25T06:13:14;12.27;;;4.27;;
803;SDS011;25687;49.976;8.240;2023-05-25T06:15:39;9.37;;;3.63;;
803;SDS011;25687;49.976;8.240;2023-05-25T06:18:05;9.27;;;4.00;;
803;SDS011;25687;49.976;8.240;2023-05-25T06:20:30;7.60;;;3.40;;
803;SDS011;25687;49.976;8.240;2023-05-25T06:22:55;8.23;;;3.93;;
803;SDS011;25687;49.976;8.240;2023-05-25T06:25:21;7.53;;;3.80;;
803;SDS011;25687;49.976;8.240;2023-05-25T06:27:46;8.03;;;3.70;;
803;SDS011;25687;49.976;8.240;2023-05-25T06:30:11;10.80;;;4.03;;
803;SDS011;25687;49.976;8.240;2023-05-25T06:32:36;7.43;;;4.40;;
803;SDS011;25687;49.976;8.240;2023-05-25T06:35:02;7.57;;;3.40;;
803;SDS011;25687;49.976;8.240;2023-05-25T06:37:28;4.83;;;3.43;;
803;SDS011;25687;49.976;8.240;2023-05-25T06:39:59;7.47;;;3.40;;
803;SDS011;25687;49.976;8.240;2023-05-25T06:42:25;6.17;;;3.50;;
803;SDS011;25687;49.976;8.240;2023-05-25T06:44:51;6.90;;;3.23;;
803;SDS011;25687;49.976;8.240;2023-05-25T06:47:16;6.23;;;3.00;;
803;SDS011;25687;49.976;8.240;2023-05-25T06:49:41;7.70;;;3.70;;
803;SDS011;25687;49.976;8.240;2023-05-25T06:52:06;9.37;;;3.10;;
803;SDS011;25687;49.976;8.240;2023-05-25T06:54:31;7.03;;;3.17;;
803;SDS011;25687;49.976;8.240;2023-05-25T06:56:57;6.37;;;3.03;;
803;SDS011;25687;49.976;8.240;2023-05-25T06:59:22;6.07;;;2.77;;
803;SDS011;25687;49.976;8.240;2023-05-25T07:01:47;7.47;;;3.50;;
803;SDS011;25687;49.976;8.240;2023-05-25T07:04:13;7.20;;;3.37;;
803;SDS011;25687;49.976;8.240;2023-05-25T07:06:38;9.33;;;3.47;;
803;SDS011;25687;49.976;8.240;2023-05-25T07:09:04;10.97;;;3.67;;
803;SDS011;25687;49.976;8.240;2023-05-25T07:11:29;6.07;;;3.30;;
803;SDS011;25687;49.976;8.240;2023-05-25T07:13:54;6.13;;;3.13;;
803;SDS011;25687;49.976;8.240;2023-05-25T07:16:20;7.23;;;3.40;;
803;SDS011;25687;49.976;8.240;2023-05-25T07:18:45;7.20;;;3.70;;
803;SDS011;25687;49.976;8.240;2023-05-25T07:21:10;7.00;;;3.30;;
803;SDS011;25687;49.976;8.240;2023-05-25T07:23:36;5.13;;;3.00;;
803;SDS011;25687;49.976;8.240;2023-05-25T07:26:02;5.70;;;2.80;;
803;SDS011;25687;49.976;8.240;2023-05-25T07:28:27;5.90;;;2.90;;
803;SDS011;25687;49.976;8.240;2023-05-25T07:30:56;6.43;;;3.07;;
803;SDS011;25687;49.976;8.240;2023-05-25T07:33:21;8.90;;;2.80;;
803;SDS011;25687;49.976;8.240;2023-05-25T07:35:46;6.63;;;3.50;;
803;SDS011;25687;49.976;8.240;2023-05-25T07:38:12;7.80;;;3.53;;
803;SDS011;25687;49.976;8.240;2023-05-25T07:40:37;5.83;;;3.03;;
803;SDS011;25687;49.976;8.240;2023-05-25T07:43:02;6.70;;;2.73;;
803;SDS011;25687;49.976;8.240;2023-05-25T07:45:29;5.67;;;3.13;;
803;SDS011;25687;49.976;8.240;2023-05-25T07:47:54;8.20;;;2.97;;
803;SDS011;25687;49.976;8.240;2023-05-25T07:50:19;8.60;;;3.50;;
803;SDS011;25687;49.976;8.240;2023-05-25T07:52:45;6.07;;;3.20;;
803;SDS011;25687;49.976;8.240;2023-05-25T07:55:10;5.23;;;3.30;;
803;SDS011;25687;49.976;8.240;2023-05-25T07:57:36;7.97;;;3.67;;
803;SDS011;25687;49.976;8.240;2023-05-25T08:00:01;5.72;;;2.92;;
803;SDS011;25687;49.976;8.240;2023-05-25T08:02:29;6.13;;;3.08;;
803;SDS011;25687;49.976;8.240;2023-05-25T08:04:55;8.70;;;3.60;;
803;SDS011;25687;49.976;8.240;2023-05-25T08:07:20;7.05;;;3.42;;
803;SDS011;25687;49.976;8.240;2023-05-25T08:09:45;6.32;;;3.17;;
803;SDS011;25687;49.976;8.240;2023-05-25T08:12:11;8.93;;;2.97;;
803;SDS011;25687;49.976;8.240;2023-05-25T08:14:36;11.38;;;4.00;;
803;SDS011;25687;49.976;8.240;2023-05-25T08:17:02;6.00;;;3.15;;
803;SDS011;25687;49.976;8.240;2023-05-25T08:19:28;7.32;;;3.03;;
803;SDS011;25687;49.976;8.240;2023-05-25T08:21:55;8.15;;;5.00;;
803;SDS011;25687;49.976;8.240;2023-05-25T08:24:20;6.30;;;3.42;;
803;SDS011;25687;49.976;8.240;2023-05-25T08:26:46;5.95;;;3.38;;
803;SDS011;25687;49.976;8.240;2023-05-25T08:29:12;7.07;;;3.15;;
803;SDS011;25687;49.976;8.240;2023-05-25T08:31:38;6.28;;;3.05;;
803;SDS011;25687;49.976;8.240;2023-05-25T08:34:05;5.93;;;2.97;;
803;SDS011;25687;49.976;8.240;2023-05-25T08:36:31;5.75;;;3.10;;
803;SDS011;25687;49.976;8.240;2023-05-25T08:38:59;5.10;;;3.03;;
803;SDS011;25687;49.976;8.240;2023-05-25T08:41:25;6.75;;;3.20;;
803;SDS011;25687;49.976;8.240;2023-05-25T08:43:50;5.30;;;2.63;;
803;SDS011;25687;49.976;8.240;2023-05-25T08:46:15;8.73;;;3.80;;
803;SDS011;25687;49.976;8.240;2023-05-25T08:48:53;5.65;;;3.00;;
803;SDS011;25687;49.976;8.240;2023-05-25T08:51:26;5.35;;;3.03;;
803;SDS011;25687;49.976;8.240;2023-05-25T08:53:53;6.00;;;3.42;;
803;SDS011;25687;49.976;8.240;2023-05-25T08:56:24;11.35;;;6.18;;
803;SDS011;25687;49.976;8.240;2023-05-25T08:58:53;6.80;;;3.17;;
803;SDS011;25687;49.976;8.240;2023-05-25T09:01:27;4.90;;;2.72;;
803;SDS011;25687;49.976;8.240;2023-05-25T09:03:55;6.65;;;2.95;;
803;SDS011;25687;49.976;8.240;2023-05-25T09:06:22;7.55;;;3.05;;
803;SDS011;25687;49.976;8.240;2023-05-25T09:08:50;7.65;;;3.40;;
803;SDS011;25687;49.976;8.240;2023-05-25T09:11:16;6.18;;;3.42;;
803;SDS011;25687;49.976;8.240;2023-05-25T09:13:42;6.47;;;2.97;;
803;SDS011;25687;49.976;8.240;2023-05-25T09:16:07;8.82;;;2.83;;
803;SDS011;25687;49.976;8.240;2023-05-25T09:18:32;5.13;;;3.08;;
803;SDS011;25687;49.976;8.240;2023-05-25T09:20:58;4.68;;;2.72;;
803;SDS011;25687;49.976;8.240;2023-05-25T09:23:23;6.30;;;2.63;;
803;SDS011;25687;49.976;8.240;2023-05-25T09:25:49;4.43;;;2.40;;
803;SDS011;25687;49.976;8.240;2023-05-25T09:28:17;4.50;;;2.38;;
803;SDS011;25687;49.976;8.240;2023-05-25T09:30:44;6.47;;;3.00;;
803;SDS011;25687;49.976;8.240;2023-05-25T09:33:10;6.88;;;3.53;;
803;SDS011;25687;49.976;8.240;2023-05-25T09:35:42;6.60;;;2.75;;
803;SDS011;25687;49.976;8.240;2023-05-25T09:38:08;5.63;;;2.88;;
803;SDS011;25687;49.976;8.240;2023-05-25T09:40:33;8.13;;;3.13;;
803;SDS011;25687;49.976;8.240;2023-05-25T09:43:00;5.93;;;2.90;;
803;SDS011;25687;49.976;8.240;2023-05-25T09:45:27;4.68;;;2.72;;
803;SDS011;25687;49.976;8.240;2023-05-25T09:47:55;5.50;;;3.25;;
803;SDS011;25687;49.976;8.240;2023-05-25T09:50:21;10.32;;;3.00;;
803;SDS011;25687;49.976;8.240;2023-05-25T09:52:46;4.80;;;2.97;;
803;SDS011;25687;49.976;8.240;2023-05-25T09:55:12;7.63;;;3.20;;
803;SDS011;25687;49.976;8.240;2023-05-25T09:57:37;4.75;;;2.95;;
803;SDS011;25687;49.976;8.240;2023-05-25T10:00:03;8.65;;;3.08;;
803;SDS011;25687;49.976;8.240;2023-05-25T10:02:29;4.45;;;2.55;;
803;SDS011;25687;49.976;8.240;2023-05-25T10:04:55;6.50;;;3.40;;
803;SDS011;25687;49.976;8.240;2023-05-25T10:07:20;4.97;;;2.90;;
803;SDS011;25687;49.976;8.240;2023-05-25T10:09:46;5.90;;;3.15;;
803;SDS011;25687;49.976;8.240;2023-05-25T10:12:16;13.80;;;3.30;;
803;SDS011;25687;49.976;8.240;2023-05-25T10:14:43;4.25;;;2.60;;
803;SDS011;25687;49.976;8.240;2023-05-25T10:17:10;5.20;;;3.20;;
803;SDS011;25687;49.976;8.240;2023-05-25T10:19:37;7.65;;;3.22;;
803;SDS011;25687;49.976;8.240;2023-05-25T10:24:55;3.83;;;2.85;;
803;SDS011;25687;49.976;8.240;2023-05-25T10:27:24;6.05;;;3.50;;
803;SDS011;25687;49.976;8.240;2023-05-25T10:29:54;4.32;;;2.63;;
803;SDS011;25687;49.976;8.240;2023-05-25T10:32:20;6.18;;;2.70;;
803;SDS011;25687;49.976;8.240;2023-05-25T10:34:46;6.80;;;2.70;;
803;SDS011;25687;49.976;8.240;2023-05-25T10:37:13;5.13;;;2.78;;
803;SDS011;25687;49.976;8.240;2023-05-25T10:39:39;3.95;;;2.80;;
803;SDS011;25687;49.976;8.240;2023-05-25T10:42:06;4.47;;;2.75;;
803;SDS011;25687;49.976;8.240;2023-05-25T10:44:31;6.82;;;2.97;;
803;SDS011;25687;49.976;8.240;2023-05-25T10:46:57;6.90;;;3.23;;
803;SDS011;25687;49.976;8.240;2023-05-25T10:49:30;7.43;;;3.20;;
803;SDS011;25687;49.976;8.240;2023-05-25T10:51:57;5.00;;;3.63;;
803;SDS011;25687;49.976;8.240;2023-05-25T10:54:27;9.97;;;3.40;;
803;SDS011;25687;49.976;8.240;2023-05-25T11:00:03;9.13;;;3.13;;
803;SDS011;25687;49.976;8.240;2023-05-25T11:02:46;5.87;;;3.27;;
803;SDS011;25687;49.976;8.240;2023-05-25T11:07:58;6.03;;;3.50;;
803;SDS011;25687;49.976;8.240;2023-05-25T11:10:43;4.70;;;2.90;;
803;SDS011;25687;49.976;8.240;2023-05-25T11:13:32;6.03;;;2.87;;
803;SDS011;25687;49.976;8.240;2023-05-25T11:18:41;3.70;;;2.70;;
803;SDS011;25687;49.976;8.240;2023-05-25T11:21:14;7.07;;;3.30;;
803;SDS011;25687;49.976;8.240;2023-05-25T11:24:16;5.30;;;3.20;;
803;SDS011;25687;49.976;8.240;2023-05-25T11:26:51;5.13;;;3.33;;
803;SDS011;25687;49.976;8.240;2023-05-25T11:29:18;6.27;;;3.00;;
803;SDS011;25687;49.976;8.240;2023-05-25T11:31:48;5.67;;;2.80;;
803;SDS011;25687;49.976;8.240;2023-05-25T11:34:16;4.43;;;3.10;;
803;SDS011;25687;49.976;8.240;2023-05-25T11:36:42;6.67;;;3.60;;
803;SDS011;25687;49.976;8.240;2023-05-25T11:39:07;4.07;;;3.17;;
803;SDS011;25687;49.976;8.240;2023-05-25T11:41:33;5.07;;;3.57;;
803;SDS011;25687;49.976;8.240;2023-05-25T11:44:03;5.20;;;2.83;;
803;SDS011;25687;49.976;8.240;2023-05-25T11:46:32;4.03;;;3.23;;
803;SDS011;25687;49.976;8.240;2023-05-25T11:48:58;4.63;;;3.00;;
803;SDS011;25687;49.976;8.240;2023-05-25T11:51:25;4.13;;;3.30;;
803;SDS011;25687;49.976;8.240;2023-05-25T11:53:52;8.60;;;3.50;;
803;SDS011;25687;49.976;8.240;2023-05-25T11:56:18;11.03;;;4.00;;
803;SDS011;25687;49.976;8.240;2023-05-25T11:58:44;7.47;;;3.50;;
803;SDS011;25687;49.976;8.240;2023-05-25T12:01:14;6.07;;;2.70;;
803;SDS011;25687;49.976;8.240;2023-05-25T12:03:44;5.30;;;2.97;;
803;SDS011;25687;49.976;8.240;2023-05-25T12:06:23;8.50;;;3.30;;
803;SDS011;25687;49.976;8.240;2023-05-25T12:08:49;8.00;;;3.30;;
803;SDS011;25687;49.976;8.240;2023-05-25T12:11:14;11.20;;;3.30;;
803;SDS011;25687;49.976;8.240;2023-05-25T12:13:40;7.77;;;3.40;;
803;SDS011;25687;49.976;8.240;2023-05-25T12:16:05;5.13;;;3.20;;
803;SDS011;25687;49.976;8.240;2023-05-25T12:18:31;7.17;;;3.10;;
803;SDS011;25687;49.976;8.240;2023-05-25T12:20:56;4.53;;;3.03;;
803;SDS011;25687;49.976;8.240;2023-05-25T12:23:22;5.23;;;3.23;;
803;SDS011;25687;49.976;8.240;2023-05-25T12:25:47;5.77;;;3.70;;
803;SDS011;25687;49.976;8.240;2023-05-25T12:28:14;3.47;;;2.70;;
803;SDS011;25687;49.976;8.240;2023-05-25T12:30:40;7.87;;;3.47;;
803;SDS011;25687;49.976;8.240;2023-05-25T12:33:05;5.50;;;2.90;;
803;SDS011;25687;49.976;8.240;2023-05-25T12:35:46;7.57;;;3.17;;
803;SDS011;25687;49.976;8.240;2023-05-25T12:38:13;4.33;;;2.90;;
803;SDS011;25687;49.976;8.240;2023-05-25T12:40:41;6.00;;;3.20;;
803;SDS011;25687;49.976;8.240;2023-05-25T12:43:06;7.00;;;3.57;;
803;SDS011;25687;49.976;8.240;2023-05-25T12:45:32;5.93;;;3.30;;
803;SDS011;25687;49.976;8.240;2023-05-25T12:47:57;5.63;;;2.83;;
803;SDS011;25687;49.976;8.240;2023-05-25T12:50:23;6.80;;;2.70;;
803;SDS011;25687;49.976;8.240;2023-05-25T12:52:48;7.37;;;3.17;;
803;SDS011;25687;49.976;8.240;2023-05-25T12:55:26;7.57;;;3.27;;
803;SDS011;25687;49.976;8.240;2023-05-25T12:57:54;5.75;;;3.50;;
803;SDS011;25687;49.976;8.240;2023-05-25T13:00:23;5.90;;;3.20;;
803;SDS011;25687;49.976;8.240;2023-05-25T13:02:48;5.90;;;3.27;;
803;SDS011;25687;49.976;8.240;2023-05-25T13:05:25;6.87;;;2.93;;
803;SDS011;25687;49.976;8.240;2023-05-25T13:07:55;4.77;;;3.10;;
803;SDS011;25687;49.976;8.240;2023-05-25T13:10:21;5.97;;;3.23;;
803;SDS011;25687;49.976;8.240;2023-05-25T13:12:48;10.67;;;3.63;;
803;SDS011;25687;49.976;8.240;2023-05-25T13:15:15;6.50;;;3.30;;
803;SDS011;25687;49.976;8.240;2023-05-25T13:17:43;5.33;;;3.90;;
803;SDS011;25687;49.976;8.240;2023-05-25T13:20:12;6.43;;;3.30;;
803;SDS011;25687;49.976;8.240;2023-05-25T13:22:42;4.33;;;3.13;;
803;SDS011;25687;49.976;8.240;2023-05-25T13:25:09;5.60;;;3.50;;
803;SDS011;25687;49.976;8.240;2023-05-25T13:27:35;7.00;;;3.60;;
803;SDS011;25687;49.976;8.240;2023-05-25T13:30:05;5.03;;;3.80;;
803;SDS011;25687;49.976;8.240;2023-05-25T13:32:32;6.97;;;3.53;;
803;SDS011;25687;49.976;8.240;2023-05-25T13:34:58;3.43;;;3.13;;
803;SDS011;25687;49.976;8.240;2023-05-25T13:37:24;7.73;;;3.37;;
803;SDS011;25687;49.976;8.240;2023-05-25T13:39:51;6.40;;;3.27;;
803;SDS011;25687;49.976;8.240;2023-05-25T13:42:17;7.70;;;3.60;;
803;SDS011;25687;49.976;8.240;2023-05-25T13:44:42;7.87;;;6.03;;
803;SDS011;25687;49.976;8.240;2023-05-25T13:47:07;5.70;;;3.27;;
803;SDS011;25687;49.976;8.240;2023-05-25T13:49:33;8.73;;;3.73;;
803;SDS011;25687;49.976;8.240;2023-05-25T13:51:58;5.97;;;3.10;;
803;SDS011;25687;49.976;8.240;2023-05-25T13:54:23;5.03;;;3.13;;
803;SDS011;25687;49.976;8.240;2023-05-25T13:56:49;5.90;;;3.20;;
803;SDS011;25687;49.976;8.240;2023-05-25T13:59:14;6.10;;;3.67;;
803;SDS011;25687;49.976;8.240;2023-05-25T14:01:39;5.93;;;3.70;;
803;SDS011;25687;49.976;8.240;2023-05-25T14:04:05;4.40;;;3.43;;
803;SDS011;25687;49.976;8.240;2023-05-25T14:06:31;7.30;;;3.73;;
803;SDS011;25687;49.976;8.240;2023-05-25T14:08:56;7.23;;;3.60;;
803;SDS011;25687;49.976;8.240;2023-05-25T14:11:21;4.37;;;3.10;;
803;SDS011;25687;49.976;8.240;2023-05-25T14:13:46;6.70;;;3.40;;
803;SDS011;25687;49.976;8.240;2023-05-25T14:16:12;6.17;;;3.80;;
803;SDS011;25687;49.976;8.240;2023-05-25T14:18:37;5.90;;;3.50;;
803;SDS011;25687;49.976;8.240;2023-05-25T14:21:02;4.80;;;3.30;;
803;SDS011;25687;49.976;8.240;2023-05-25T14:23:28;5.97;;;3.57;;
803;SDS011;25687;49.976;8.240;2023-05-25T14:25:53;5.30;;;3.37;;
803;SDS011;25687;49.976;8.240;2023-05-25T14:28:18;5.30;;;3.47;;
803;SDS011;25687;49.976;8.240;2023-05-25T14:30:43;5.33;;;3.20;;
803;SDS011;25687;49.976;8.240;2023-05-25T14:33:09;7.63;;;3.30;;
803;SDS011;25687;49.976;8.240;2023-05-25T14:35:39;5.10;;;3.60;;
803;SDS011;25687;49.976;8.240;2023-05-25T14:38:06;5.07;;;3.37;;
803;SDS011;25687;49.976;8.240;2023-05-25T14:40:32;9.17;;;3.33;;
803;SDS011;25687;49.976;8.240;2023-05-25T14:42:57;5.33;;;3.50;;
803;SDS011;25687;49.976;8.240;2023-05-25T14:45:22;6.13;;;3.13;;
803;SDS011;25687;49.976;8.240;2023-05-25T14:47:47;4.90;;;3.43;;
803;SDS011;25687;49.976;8.240;2023-05-25T14:50:13;6.37;;;3.43;;
803;SDS011;25687;49.976;8.240;2023-05-25T14:52:38;6.63;;;3.30;;
803;SDS011;25687;49.976;8.240;2023-05-25T14:55:04;8.03;;;3.77;;
803;SDS011;25687;49.976;8.240;2023-05-25T14:57:29;8.53;;;4.10;;
803;SDS011;25687;49.976;8.240;2023-05-25T14:59:55;4.63;;;3.53;;
803;SDS011;25687;49.976;8.240;2023-05-25T15:02:20;6.93;;;3.33;;
803;SDS011;25687;49.976;8.240;2023-05-25T15:04:46;8.33;;;3.50;;
803;SDS011;25687;49.976;8.240;2023-05-25T15:07:11;5.07;;;3.17;;
803;SDS011;25687;49.976;8.240;2023-05-25T15:09:38;10.67;;;3.50;;
803;SDS011;25687;49.976;8.240;2023-05-25T15:12:04;5.73;;;3.80;;
803;SDS011;25687;49.976;8.240;2023-05-25T15:14:32;8.40;;;4.10;;
803;SDS011;25687;49.976;8.240;2023-05-25T15:16:57;7.97;;;3.43;;
803;SDS011;25687;49.976;8.240;2023-05-25T15:19:23;7.10;;;2.90;;
803;SDS011;25687;49.976;8.240;2023-05-25T15:21:48;5.90;;;3.03;;
803;SDS011;25687;49.976;8.240;2023-05-25T15:24:13;5.30;;;3.30;;
803;SDS011;25687;49.976;8.240;2023-05-25T15:26:40;4.27;;;3.53;;
803;SDS011;25687;49.976;8.240;2023-05-25T15:29:06;7.90;;;3.40;;
803;SDS011;25687;49.976;8.240;2023-05-25T15:31:32;6.93;;;3.60;;
803;SDS011;25687;49.976;8.240;2023-05-25T15:33:57;6.83;;;3.37;;